sensor_id;sensor_type;location;lat;lon;timestamp;P1;durP1;ratioP1;P2;durP2;ratioP2
65759;SDS011;52496;51.082;5.066;2024-03-07T00:02:34;37.80;;;17.90;;
65759;SDS011;52496;51.082;5.066;2024-03-07T00:05:04;39.72;;;19.23;;
65759;SDS011;52496;51.082;5.066;2024-03-07T00:07:35;39.30;;;19.40;;
65759;SDS011;52496;51.082;5.066;2024-03-07T00:10:06;50.42;;;22.85;;
65759;SDS011;52496;51.082;5.066;2024-03-07T00:12:38;56.22;;;22.98;;
65759;SDS011;52496;51.082;5.066;2024-03-07T00:18:05;49.75;;;21.25;;
65759;SDS011;52496;51.082;5.066;2024-03-07T00:20:45;52.30;;;21.98;;
65759;SDS011;52496;51.082;5.066;2024-03-07T00:23:15;43.58;;;19.25;;
65759;SDS011;52496;51.082;5.066;2024-03-07T00:25:46;48.03;;;22.50;;
65759;SDS011;52496;51.082;5.066;2024-03-07T00:28:19;47.80;;;21.42;;
65759;SDS011;52496;51.082;5.066;2024-03-07T00:30:49;47.55;;;20.08;;
65759;SDS011;52496;51.082;5.066;2024-03-07T00:33:21;40.13;;;20.75;;
65759;SDS011;52496;51.082;5.066;2024-03-07T00:35:52;51.47;;;23.58;;
65759;SDS011;52496;51.082;5.066;2024-03-07T00:38:22;48.97;;;23.20;;
65759;SDS011;52496;51.082;5.066;2024-03-07T00:40:53;45.72;;;20.33;;
65759;SDS011;52496;51.082;5.066;2024-03-07T00:43:23;52.00;;;23.15;;
65759;SDS011;52496;51.082;5.066;2024-03-07T00:45:55;48.80;;;22.02;;
65759;SDS011;52496;51.082;5.066;2024-03-07T00:48:26;44.95;;;20.35;;
65759;SDS011;52496;51.082;5.066;2024-03-07T00:51:11;43.00;;;21.13;;
65759;SDS011;52496;51.082;5.066;2024-03-07T00:53:42;46.28;;;22.27;;
65759;SDS011;52496;51.082;5.066;2024-03-07T00:56:12;52.78;;;23.15;;
65759;SDS011;52496;51.082;5.066;2024-03-07T00:58:43;48.50;;;22.98;;
65759;SDS011;52496;51.082;5.066;2024-03-07T01:04:08;49.72;;;21.88;;
65759;SDS011;52496;51.082;5.066;2024-03-07T01:06:38;45.85;;;21.52;;
65759;SDS011;52496;51.082;5.066;2024-03-07T01:09:11;49.60;;;22.25;;
65759;SDS011;52496;51.082;5.066;2024-03-07T01:11:44;58.13;;;22.10;;
65759;SDS011;52496;51.082;5.066;2024-03-07T01:14:15;47.22;;;22.92;;
65759;SDS011;52496;51.082;5.066;2024-03-07T01:16:45;47.85;;;20.60;;
65759;SDS011;52496;51.082;5.066;2024-03-07T01:19:17;47.08;;;22.90;;
65759;SDS011;52496;51.082;5.066;2024-03-07T01:21:47;57.05;;;22.33;;
65759;SDS011;52496;51.082;5.066;2024-03-07T01:24:19;48.50;;;22.10;;
65759;SDS011;52496;51.082;5.066;2024-03-07T01:26:50;47.50;;;20.08;;
65759;SDS011;52496;51.082;5.066;2024-03-07T01:29:29;52.25;;;23.17;;
65759;SDS011;52496;51.082;5.066;2024-03-07T01:32:00;51.42;;;22.50;;
65759;SDS011;52496;51.082;5.066;2024-03-07T01:34:39;53.97;;;23.58;;
65759;SDS011;52496;51.082;5.066;2024-03-07T01:37:10;48.40;;;20.80;;
65759;SDS011;52496;51.082;5.066;2024-03-07T01:39:41;57.28;;;23.05;;
65759;SDS011;52496;51.082;5.066;2024-03-07T01:42:17;57.38;;;23.10;;
65759;SDS011;52496;51.082;5.066;2024-03-07T01:44:48;52.13;;;23.33;;
65759;SDS011;52496;51.082;5.066;2024-03-07T01:47:18;47.00;;;19.48;;
65759;SDS011;52496;51.082;5.066;2024-03-07T01:49:58;48.80;;;23.60;;
65759;SDS011;52496;51.082;5.066;2024-03-07T01:52:29;50.60;;;23.50;;
65759;SDS011;52496;51.082;5.066;2024-03-07T01:55:00;51.63;;;22.85;;
65759;SDS011;52496;51.082;5.066;2024-03-07T01:57:39;41.15;;;17.73;;
65759;SDS011;52496;51.082;5.066;2024-03-07T02:00:12;50.28;;;24.83;;
65759;SDS011;52496;51.082;5.066;2024-03-07T02:02:44;58.88;;;24.55;;
65759;SDS011;52496;51.082;5.066;2024-03-07T02:05:15;60.85;;;23.35;;
65759;SDS011;52496;51.082;5.066;2024-03-07T02:07:46;70.80;;;28.63;;
65759;SDS011;52496;51.082;5.066;2024-03-07T02:10:17;62.00;;;24.00;;
65759;SDS011;52496;51.082;5.066;2024-03-07T02:12:48;51.95;;;22.55;;
65759;SDS011;52496;51.082;5.066;2024-03-07T02:15:18;53.15;;;25.08;;
65759;SDS011;52496;51.082;5.066;2024-03-07T02:17:49;56.08;;;24.45;;
65759;SDS011;52496;51.082;5.066;2024-03-07T02:20:19;64.28;;;26.02;;
65759;SDS011;52496;51.082;5.066;2024-03-07T02:22:51;54.95;;;23.75;;
65759;SDS011;52496;51.082;5.066;2024-03-07T02:25:21;55.95;;;21.92;;
65759;SDS011;52496;51.082;5.066;2024-03-07T02:27:52;40.00;;;19.05;;
65759;SDS011;52496;51.082;5.066;2024-03-07T02:30:22;52.70;;;24.60;;
65759;SDS011;52496;51.082;5.066;2024-03-07T02:32:53;57.70;;;23.33;;
65759;SDS011;52496;51.082;5.066;2024-03-07T02:35:25;53.80;;;24.05;;
65759;SDS011;52496;51.082;5.066;2024-03-07T02:37:55;56.28;;;26.58;;
65759;SDS011;52496;51.082;5.066;2024-03-07T02:40:25;58.08;;;26.95;;
65759;SDS011;52496;51.082;5.066;2024-03-07T02:42:56;59.47;;;25.45;;
65759;SDS011;52496;51.082;5.066;2024-03-07T02:45:27;66.30;;;25.48;;
65759;SDS011;52496;51.082;5.066;2024-03-07T02:48:07;59.57;;;26.30;;
65759;SDS011;52496;51.082;5.066;2024-03-07T02:50:39;57.72;;;25.60;;
65759;SDS011;52496;51.082;5.066;2024-03-07T02:53:09;55.65;;;24.88;;
65759;SDS011;52496;51.082;5.066;2024-03-07T02:55:40;51.05;;;24.90;;
65759;SDS011;52496;51.082;5.066;2024-03-07T02:58:11;56.88;;;25.40;;
65759;SDS011;52496;51.082;5.066;2024-03-07T03:00:42;65.43;;;28.08;;
65759;SDS011;52496;51.082;5.066;2024-03-07T03:03:12;70.72;;;28.63;;
65759;SDS011;52496;51.082;5.066;2024-03-07T03:05:43;70.40;;;27.83;;
65759;SDS011;52496;51.082;5.066;2024-03-07T03:08:13;66.60;;;27.55;;
65759;SDS011;52496;51.082;5.066;2024-03-07T03:10:44;63.83;;;26.92;;
65759;SDS011;52496;51.082;5.066;2024-03-07T03:13:14;55.85;;;25.00;;
65759;SDS011;52496;51.082;5.066;2024-03-07T03:15:45;70.43;;;27.13;;
65759;SDS011;52496;51.082;5.066;2024-03-07T03:18:16;64.18;;;28.52;;
65759;SDS011;52496;51.082;5.066;2024-03-07T03:20:56;72.07;;;27.60;;
65759;SDS011;52496;51.082;5.066;2024-03-07T03:23:27;71.00;;;26.35;;
65759;SDS011;52496;51.082;5.066;2024-03-07T03:25:58;70.82;;;29.45;;
65759;SDS011;52496;51.082;5.066;2024-03-07T03:28:29;70.75;;;27.70;;
65759;SDS011;52496;51.082;5.066;2024-03-07T03:31:00;72.82;;;26.73;;
65759;SDS011;52496;51.082;5.066;2024-03-07T03:33:30;70.80;;;27.02;;
65759;SDS011;52496;51.082;5.066;2024-03-07T03:36:02;71.18;;;25.08;;
65759;SDS011;52496;51.082;5.066;2024-03-07T03:38:33;72.13;;;27.25;;
65759;SDS011;52496;51.082;5.066;2024-03-07T03:41:04;69.28;;;28.00;;
65759;SDS011;52496;51.082;5.066;2024-03-07T03:43:34;76.28;;;29.02;;
65759;SDS011;52496;51.082;5.066;2024-03-07T03:46:17;61.28;;;25.33;;
65759;SDS011;52496;51.082;5.066;2024-03-07T03:48:48;63.58;;;26.45;;
65759;SDS011;52496;51.082;5.066;2024-03-07T03:51:20;72.05;;;27.50;;
65759;SDS011;52496;51.082;5.066;2024-03-07T03:53:52;81.55;;;27.25;;
65759;SDS011;52496;51.082;5.066;2024-03-07T03:56:22;66.93;;;25.58;;
65759;SDS011;52496;51.082;5.066;2024-03-07T03:58:56;70.05;;;24.60;;
65759;SDS011;52496;51.082;5.066;2024-03-07T04:01:26;62.55;;;28.52;;
65759;SDS011;52496;51.082;5.066;2024-03-07T04:03:57;73.78;;;25.40;;
65759;SDS011;52496;51.082;5.066;2024-03-07T04:06:27;71.80;;;24.65;;
65759;SDS011;52496;51.082;5.066;2024-03-07T04:08:59;66.30;;;25.80;;
65759;SDS011;52496;51.082;5.066;2024-03-07T04:11:29;69.55;;;26.83;;
65759;SDS011;52496;51.082;5.066;2024-03-07T04:14:00;61.60;;;23.40;;
65759;SDS011;52496;51.082;5.066;2024-03-07T04:16:31;75.20;;;28.88;;
65759;SDS011;52496;51.082;5.066;2024-03-07T04:19:01;73.20;;;25.85;;
65759;SDS011;52496;51.082;5.066;2024-03-07T04:21:40;64.32;;;27.38;;
65759;SDS011;52496;51.082;5.066;2024-03-07T04:24:12;91.20;;;27.38;;
65759;SDS011;52496;51.082;5.066;2024-03-07T04:26:42;69.50;;;27.05;;
65759;SDS011;52496;51.082;5.066;2024-03-07T04:29:13;71.50;;;27.67;;
65759;SDS011;52496;51.082;5.066;2024-03-07T04:31:43;83.53;;;30.13;;
65759;SDS011;52496;51.082;5.066;2024-03-07T04:34:20;72.07;;;27.75;;
65759;SDS011;52496;51.082;5.066;2024-03-07T04:36:50;79.40;;;29.63;;
65759;SDS011;52496;51.082;5.066;2024-03-07T04:39:21;95.93;;;31.60;;
65759;SDS011;52496;51.082;5.066;2024-03-07T04:42:01;70.07;;;27.52;;
65759;SDS011;52496;51.082;5.066;2024-03-07T04:44:33;84.40;;;28.27;;
65759;SDS011;52496;51.082;5.066;2024-03-07T04:47:05;91.40;;;29.10;;
65759;SDS011;52496;51.082;5.066;2024-03-07T04:49:36;92.90;;;30.88;;
65759;SDS011;52496;51.082;5.066;2024-03-07T04:52:07;96.22;;;32.08;;
65759;SDS011;52496;51.082;5.066;2024-03-07T04:54:37;93.10;;;31.02;;
65759;SDS011;52496;51.082;5.066;2024-03-07T04:57:07;144.65;;;39.53;;
65759;SDS011;52496;51.082;5.066;2024-03-07T04:59:41;113.45;;;33.60;;
65759;SDS011;52496;51.082;5.066;2024-03-07T05:02:11;119.80;;;33.42;;
65759;SDS011;52496;51.082;5.066;2024-03-07T05:04:42;108.05;;;33.80;;
65759;SDS011;52496;51.082;5.066;2024-03-07T05:07:21;77.22;;;28.38;;
65759;SDS011;52496;51.082;5.066;2024-03-07T05:09:52;103.43;;;32.45;;
65759;SDS011;52496;51.082;5.066;2024-03-07T05:12:22;117.25;;;35.40;;
65759;SDS011;52496;51.082;5.066;2024-03-07T05:14:53;102.63;;;31.95;;
65759;SDS011;52496;51.082;5.066;2024-03-07T05:17:23;108.07;;;31.73;;
65759;SDS011;52496;51.082;5.066;2024-03-07T05:19:54;89.30;;;33.17;;
65759;SDS011;52496;51.082;5.066;2024-03-07T05:22:25;114.13;;;33.75;;
65759;SDS011;52496;51.082;5.066;2024-03-07T05:24:56;119.47;;;34.00;;
65759;SDS011;52496;51.082;5.066;2024-03-07T05:27:28;121.88;;;37.90;;
65759;SDS011;52496;51.082;5.066;2024-03-07T05:30:00;106.90;;;32.10;;
65759;SDS011;52496;51.082;5.066;2024-03-07T05:32:32;87.32;;;31.05;;
65759;SDS011;52496;51.082;5.066;2024-03-07T05:35:04;94.75;;;28.40;;
65759;SDS011;52496;51.082;5.066;2024-03-07T05:37:35;137.57;;;37.78;;
65759;SDS011;52496;51.082;5.066;2024-03-07T05:40:17;83.95;;;29.90;;
65759;SDS011;52496;51.082;5.066;2024-03-07T05:42:47;90.57;;;31.23;;
65759;SDS011;52496;51.082;5.066;2024-03-07T05:45:18;84.30;;;28.63;;
65759;SDS011;52496;51.082;5.066;2024-03-07T05:47:50;107.65;;;30.30;;
65759;SDS011;52496;51.082;5.066;2024-03-07T05:50:21;84.20;;;26.33;;
65759;SDS011;52496;51.082;5.066;2024-03-07T05:52:51;100.88;;;32.03;;
65759;SDS011;52496;51.082;5.066;2024-03-07T05:55:22;80.20;;;26.75;;
65759;SDS011;52496;51.082;5.066;2024-03-07T06:00:52;87.28;;;29.23;;
65759;SDS011;52496;51.082;5.066;2024-03-07T06:03:24;82.18;;;26.75;;
65759;SDS011;52496;51.082;5.066;2024-03-07T06:05:55;72.30;;;26.55;;
65759;SDS011;52496;51.082;5.066;2024-03-07T06:08:26;95.15;;;31.65;;
65759;SDS011;52496;51.082;5.066;2024-03-07T06:10:57;92.93;;;28.92;;
65759;SDS011;52496;51.082;5.066;2024-03-07T06:13:28;83.00;;;27.67;;
65759;SDS011;52496;51.082;5.066;2024-03-07T06:16:05;96.95;;;29.80;;
65759;SDS011;52496;51.082;5.066;2024-03-07T06:18:37;102.60;;;31.40;;
65759;SDS011;52496;51.082;5.066;2024-03-07T06:21:08;83.05;;;28.70;;
65759;SDS011;52496;51.082;5.066;2024-03-07T06:23:41;92.18;;;29.38;;
65759;SDS011;52496;51.082;5.066;2024-03-07T06:26:29;87.78;;;30.60;;
65759;SDS011;52496;51.082;5.066;2024-03-07T06:29:15;79.90;;;29.55;;
65759;SDS011;52496;51.082;5.066;2024-03-07T06:31:47;87.30;;;29.35;;
65759;SDS011;52496;51.082;5.066;2024-03-07T06:34:17;75.97;;;26.52;;
65759;SDS011;52496;51.082;5.066;2024-03-07T06:36:54;82.65;;;28.30;;
65759;SDS011;52496;51.082;5.066;2024-03-07T06:39:27;81.82;;;30.05;;
65759;SDS011;52496;51.082;5.066;2024-03-07T06:41:57;75.72;;;28.45;;
65759;SDS011;52496;51.082;5.066;2024-03-07T06:44:27;97.70;;;31.38;;
65759;SDS011;52496;51.082;5.066;2024-03-07T06:46:59;81.53;;;27.45;;
65759;SDS011;52496;51.082;5.066;2024-03-07T06:49:30;80.35;;;29.60;;
65759;SDS011;52496;51.082;5.066;2024-03-07T06:52:01;86.18;;;30.23;;
65759;SDS011;52496;51.082;5.066;2024-03-07T06:54:53;89.80;;;30.42;;
65759;SDS011;52496;51.082;5.066;2024-03-07T06:57:23;72.05;;;31.58;;
65759;SDS011;52496;51.082;5.066;2024-03-07T06:59:54;76.57;;;29.58;;
65759;SDS011;52496;51.082;5.066;2024-03-07T07:02:25;73.43;;;29.08;;
65759;SDS011;52496;51.082;5.066;2024-03-07T07:04:57;81.93;;;27.75;;
65759;SDS011;52496;51.082;5.066;2024-03-07T07:07:28;93.80;;;33.50;;
65759;SDS011;52496;51.082;5.066;2024-03-07T07:09:58;66.80;;;26.60;;
65759;SDS011;52496;51.082;5.066;2024-03-07T07:12:29;79.93;;;29.52;;
65759;SDS011;52496;51.082;5.066;2024-03-07T07:14:59;93.93;;;29.75;;
65759;SDS011;52496;51.082;5.066;2024-03-07T07:17:35;85.28;;;30.77;;
65759;SDS011;52496;51.082;5.066;2024-03-07T07:20:05;82.57;;;30.98;;
65759;SDS011;52496;51.082;5.066;2024-03-07T07:22:39;78.22;;;28.45;;
65759;SDS011;52496;51.082;5.066;2024-03-07T07:25:31;79.65;;;30.77;;
65759;SDS011;52496;51.082;5.066;2024-03-07T07:28:02;74.97;;;29.35;;
65759;SDS011;52496;51.082;5.066;2024-03-07T07:30:37;80.22;;;28.85;;
65759;SDS011;52496;51.082;5.066;2024-03-07T07:33:08;80.53;;;29.02;;
65759;SDS011;52496;51.082;5.066;2024-03-07T07:35:41;80.57;;;27.90;;
65759;SDS011;52496;51.082;5.066;2024-03-07T07:38:12;77.18;;;28.98;;
65759;SDS011;52496;51.082;5.066;2024-03-07T07:40:44;78.72;;;31.40;;
65759;SDS011;52496;51.082;5.066;2024-03-07T07:43:16;83.28;;;31.63;;
65759;SDS011;52496;51.082;5.066;2024-03-07T07:45:47;80.75;;;31.15;;
65759;SDS011;52496;51.082;5.066;2024-03-07T07:48:17;83.57;;;29.58;;
65759;SDS011;52496;51.082;5.066;2024-03-07T07:50:49;76.20;;;30.27;;
65759;SDS011;52496;51.082;5.066;2024-03-07T07:53:21;66.57;;;27.85;;
65759;SDS011;52496;51.082;5.066;2024-03-07T07:55:51;71.20;;;30.13;;
65759;SDS011;52496;51.082;5.066;2024-03-07T07:58:22;77.82;;;32.05;;
65759;SDS011;52496;51.082;5.066;2024-03-07T08:00:53;71.88;;;27.90;;
65759;SDS011;52496;51.082;5.066;2024-03-07T08:03:23;85.03;;;29.58;;
65759;SDS011;52496;51.082;5.066;2024-03-07T08:05:54;80.63;;;26.67;;
65759;SDS011;52496;51.082;5.066;2024-03-07T08:08:27;74.85;;;29.38;;
65759;SDS011;52496;51.082;5.066;2024-03-07T08:10:59;70.43;;;24.90;;
65759;SDS011;52496;51.082;5.066;2024-03-07T08:13:29;69.13;;;29.00;;
65759;SDS011;52496;51.082;5.066;2024-03-07T08:16:00;79.53;;;31.33;;
65759;SDS011;52496;51.082;5.066;2024-03-07T08:18:30;84.10;;;29.60;;
65759;SDS011;52496;51.082;5.066;2024-03-07T08:21:01;78.53;;;29.05;;
65759;SDS011;52496;51.082;5.066;2024-03-07T08:23:31;80.45;;;28.17;;
65759;SDS011;52496;51.082;5.066;2024-03-07T08:26:02;71.97;;;28.95;;
65759;SDS011;52496;51.082;5.066;2024-03-07T08:28:33;74.22;;;28.60;;
65759;SDS011;52496;51.082;5.066;2024-03-07T08:31:03;65.93;;;26.45;;
65759;SDS011;52496;51.082;5.066;2024-03-07T08:33:34;64.88;;;28.55;;
65759;SDS011;52496;51.082;5.066;2024-03-07T08:36:05;58.80;;;23.27;;
65759;SDS011;52496;51.082;5.066;2024-03-07T08:38:37;66.15;;;27.38;;
65759;SDS011;52496;51.082;5.066;2024-03-07T08:41:07;63.83;;;28.42;;
65759;SDS011;52496;51.082;5.066;2024-03-07T08:43:38;61.38;;;24.30;;
65759;SDS011;52496;51.082;5.066;2024-03-07T08:46:09;62.38;;;26.50;;
65759;SDS011;52496;51.082;5.066;2024-03-07T08:48:50;57.45;;;25.95;;
65759;SDS011;52496;51.082;5.066;2024-03-07T08:51:22;57.83;;;23.27;;
65759;SDS011;52496;51.082;5.066;2024-03-07T08:57:16;55.67;;;24.48;;
65759;SDS011;52496;51.082;5.066;2024-03-07T08:59:48;54.42;;;23.33;;
65759;SDS011;52496;51.082;5.066;2024-03-07T09:02:20;53.70;;;25.20;;
65759;SDS011;52496;51.082;5.066;2024-03-07T09:04:50;53.85;;;25.02;;
65759;SDS011;52496;51.082;5.066;2024-03-07T09:07:21;48.72;;;22.98;;
65759;SDS011;52496;51.082;5.066;2024-03-07T09:09:51;50.65;;;22.50;;
65759;SDS011;52496;51.082;5.066;2024-03-07T09:12:22;55.33;;;24.38;;
65759;SDS011;52496;51.082;5.066;2024-03-07T09:14:52;48.85;;;24.30;;
65759;SDS011;52496;51.082;5.066;2024-03-07T09:17:23;52.60;;;23.23;;
65759;SDS011;52496;51.082;5.066;2024-03-07T09:19:53;53.35;;;23.55;;
65759;SDS011;52496;51.082;5.066;2024-03-07T09:22:24;44.88;;;22.75;;
65759;SDS011;52496;51.082;5.066;2024-03-07T09:24:55;49.33;;;21.65;;
65759;SDS011;52496;51.082;5.066;2024-03-07T09:27:25;44.50;;;20.88;;
65759;SDS011;52496;51.082;5.066;2024-03-07T09:29:56;43.10;;;19.95;;
65759;SDS011;52496;51.082;5.066;2024-03-07T09:32:27;47.75;;;20.55;;
65759;SDS011;52496;51.082;5.066;2024-03-07T09:35:03;46.95;;;23.10;;
65759;SDS011;52496;51.082;5.066;2024-03-07T09:37:33;46.53;;;21.25;;
65759;SDS011;52496;51.082;5.066;2024-03-07T09:40:04;40.58;;;20.25;;
65759;SDS011;52496;51.082;5.066;2024-03-07T09:42:36;43.80;;;20.63;;
65759;SDS011;52496;51.082;5.066;2024-03-07T09:45:14;40.28;;;18.45;;
65759;SDS011;52496;51.082;5.066;2024-03-07T09:47:49;38.88;;;19.70;;
65759;SDS011;52496;51.082;5.066;2024-03-07T09:50:22;39.28;;;19.75;;
65759;SDS011;52496;51.082;5.066;2024-03-07T09:52:53;40.88;;;18.40;;
65759;SDS011;52496;51.082;5.066;2024-03-07T09:55:23;46.78;;;20.55;;
65759;SDS011;52496;51.082;5.066;2024-03-07T09:57:54;36.22;;;17.63;;
65759;SDS011;52496;51.082;5.066;2024-03-07T10:00:25;37.22;;;18.77;;
65759;SDS011;52496;51.082;5.066;2024-03-07T10:03:05;37.90;;;18.50;;
65759;SDS011;52496;51.082;5.066;2024-03-07T10:05:37;37.03;;;19.75;;
65759;SDS011;52496;51.082;5.066;2024-03-07T10:08:18;36.65;;;19.67;;
65759;SDS011;52496;51.082;5.066;2024-03-07T10:10:48;42.20;;;18.93;;
65759;SDS011;52496;51.082;5.066;2024-03-07T10:13:20;40.90;;;17.83;;
65759;SDS011;52496;51.082;5.066;2024-03-07T10:15:52;39.17;;;19.42;;
65759;SDS011;52496;51.082;5.066;2024-03-07T10:18:26;34.35;;;17.40;;
65759;SDS011;52496;51.082;5.066;2024-03-07T10:20:57;37.60;;;18.45;;
65759;SDS011;52496;51.082;5.066;2024-03-07T10:26:45;41.88;;;18.63;;
65759;SDS011;52496;51.082;5.066;2024-03-07T10:29:19;46.93;;;17.97;;
65759;SDS011;52496;51.082;5.066;2024-03-07T10:31:55;35.13;;;18.13;;
65759;SDS011;52496;51.082;5.066;2024-03-07T10:34:31;33.85;;;16.90;;
65759;SDS011;52496;51.082;5.066;2024-03-07T10:37:04;37.08;;;19.63;;
65759;SDS011;52496;51.082;5.066;2024-03-07T10:39:35;37.47;;;19.88;;
65759;SDS011;52496;51.082;5.066;2024-03-07T10:42:06;45.63;;;22.42;;
65759;SDS011;52496;51.082;5.066;2024-03-07T10:44:37;44.58;;;20.73;;
65759;SDS011;52496;51.082;5.066;2024-03-07T10:47:16;43.50;;;21.10;;
65759;SDS011;52496;51.082;5.066;2024-03-07T10:52:34;48.72;;;22.77;;
65759;SDS011;52496;51.082;5.066;2024-03-07T11:01:32;39.95;;;17.60;;
65759;SDS011;52496;51.082;5.066;2024-03-07T11:04:05;33.95;;;17.55;;
65759;SDS011;52496;51.082;5.066;2024-03-07T11:06:42;32.88;;;16.60;;
65759;SDS011;52496;51.082;5.066;2024-03-07T11:09:15;32.17;;;17.25;;
65759;SDS011;52496;51.082;5.066;2024-03-07T11:11:53;32.67;;;16.38;;
65759;SDS011;52496;51.082;5.066;2024-03-07T11:14:23;38.35;;;17.27;;
65759;SDS011;52496;51.082;5.066;2024-03-07T11:17:04;36.45;;;17.13;;
65759;SDS011;52496;51.082;5.066;2024-03-07T11:19:36;33.20;;;17.23;;
65759;SDS011;52496;51.082;5.066;2024-03-07T11:22:08;39.80;;;18.75;;
65759;SDS011;52496;51.082;5.066;2024-03-07T11:27:39;37.35;;;16.70;;
65759;SDS011;52496;51.082;5.066;2024-03-07T11:30:36;31.17;;;17.20;;
65759;SDS011;52496;51.082;5.066;2024-03-07T11:33:07;35.88;;;16.88;;
65759;SDS011;52496;51.082;5.066;2024-03-07T11:35:38;29.65;;;15.88;;
65759;SDS011;52496;51.082;5.066;2024-03-07T11:38:18;34.30;;;16.92;;
65759;SDS011;52496;51.082;5.066;2024-03-07T11:40:53;37.55;;;16.98;;
65759;SDS011;52496;51.082;5.066;2024-03-07T11:43:32;31.05;;;17.23;;
65759;SDS011;52496;51.082;5.066;2024-03-07T11:46:03;31.67;;;16.08;;
65759;SDS011;52496;51.082;5.066;2024-03-07T11:48:41;31.15;;;16.77;;
65759;SDS011;52496;51.082;5.066;2024-03-07T11:51:13;29.30;;;15.25;;
65759;SDS011;52496;51.082;5.066;2024-03-07T11:53:48;30.33;;;16.00;;
65759;SDS011;52496;51.082;5.066;2024-03-07T11:56:21;27.20;;;15.85;;
65759;SDS011;52496;51.082;5.066;2024-03-07T11:58:52;27.08;;;15.88;;
65759;SDS011;52496;51.082;5.066;2024-03-07T12:01:26;26.55;;;12.50;;
65759;SDS011;52496;51.082;5.066;2024-03-07T12:03:59;27.33;;;14.52;;
65759;SDS011;52496;51.082;5.066;2024-03-07T12:06:34;29.05;;;14.65;;
65759;SDS011;52496;51.082;5.066;2024-03-07T12:09:05;28.85;;;14.77;;
65759;SDS011;52496;51.082;5.066;2024-03-07T12:11:45;26.80;;;12.70;;
65759;SDS011;52496;51.082;5.066;2024-03-07T12:14:18;25.75;;;14.35;;
65759;SDS011;52496;51.082;5.066;2024-03-07T12:16:51;30.98;;;16.30;;
65759;SDS011;52496;51.082;5.066;2024-03-07T12:19:23;26.60;;;14.85;;
65759;SDS011;52496;51.082;5.066;2024-03-07T12:22:07;25.85;;;14.60;;
65759;SDS011;52496;51.082;5.066;2024-03-07T12:24:42;29.77;;;16.38;;
65759;SDS011;52496;51.082;5.066;2024-03-07T12:27:12;27.25;;;14.82;;
65759;SDS011;52496;51.082;5.066;2024-03-07T12:29:45;24.27;;;13.80;;
65759;SDS011;52496;51.082;5.066;2024-03-07T12:32:18;28.88;;;15.95;;
65759;SDS011;52496;51.082;5.066;2024-03-07T12:34:48;26.95;;;15.52;;
65759;SDS011;52496;51.082;5.066;2024-03-07T12:37:19;27.30;;;15.25;;
65759;SDS011;52496;51.082;5.066;2024-03-07T12:39:58;26.77;;;15.05;;
65759;SDS011;52496;51.082;5.066;2024-03-07T12:42:43;23.45;;;14.52;;
65759;SDS011;52496;51.082;5.066;2024-03-07T12:45:20;21.05;;;12.43;;
65759;SDS011;52496;51.082;5.066;2024-03-07T12:48:11;23.33;;;12.20;;
65759;SDS011;52496;51.082;5.066;2024-03-07T12:50:47;22.17;;;11.73;;
65759;SDS011;52496;51.082;5.066;2024-03-07T12:53:24;27.63;;;14.23;;
65759;SDS011;52496;51.082;5.066;2024-03-07T12:55:59;21.10;;;11.77;;
65759;SDS011;52496;51.082;5.066;2024-03-07T12:58:29;23.70;;;12.95;;
65759;SDS011;52496;51.082;5.066;2024-03-07T13:01:00;23.27;;;12.85;;
65759;SDS011;52496;51.082;5.066;2024-03-07T13:03:36;21.48;;;11.88;;
65759;SDS011;52496;51.082;5.066;2024-03-07T13:06:11;21.60;;;12.25;;
65759;SDS011;52496;51.082;5.066;2024-03-07T13:08:42;21.88;;;11.48;;
65759;SDS011;52496;51.082;5.066;2024-03-07T13:11:14;25.00;;;13.55;;
65759;SDS011;52496;51.082;5.066;2024-03-07T13:13:45;18.63;;;12.18;;
65759;SDS011;52496;51.082;5.066;2024-03-07T13:16:17;21.80;;;12.25;;
65759;SDS011;52496;51.082;5.066;2024-03-07T13:18:56;24.33;;;13.55;;
65759;SDS011;52496;51.082;5.066;2024-03-07T13:21:30;26.10;;;11.57;;
65759;SDS011;52496;51.082;5.066;2024-03-07T13:24:01;23.60;;;12.35;;
65759;SDS011;52496;51.082;5.066;2024-03-07T13:26:32;23.95;;;12.60;;
65759;SDS011;52496;51.082;5.066;2024-03-07T13:29:02;20.23;;;11.82;;
65759;SDS011;52496;51.082;5.066;2024-03-07T13:31:34;17.45;;;10.45;;
65759;SDS011;52496;51.082;5.066;2024-03-07T13:34:05;19.95;;;11.50;;
65759;SDS011;52496;51.082;5.066;2024-03-07T13:36:51;25.75;;;11.52;;
65759;SDS011;52496;51.082;5.066;2024-03-07T13:39:28;18.67;;;10.57;;
65759;SDS011;52496;51.082;5.066;2024-03-07T13:41:58;26.40;;;12.02;;
65759;SDS011;52496;51.082;5.066;2024-03-07T13:44:29;19.98;;;11.05;;
65759;SDS011;52496;51.082;5.066;2024-03-07T13:46:59;22.48;;;11.80;;
65759;SDS011;52496;51.082;5.066;2024-03-07T13:49:31;20.73;;;11.48;;
65759;SDS011;52496;51.082;5.066;2024-03-07T13:52:06;21.00;;;11.43;;
65759;SDS011;52496;51.082;5.066;2024-03-07T13:55:04;20.50;;;11.38;;
65759;SDS011;52496;51.082;5.066;2024-03-07T13:57:43;17.65;;;10.23;;
65759;SDS011;52496;51.082;5.066;2024-03-07T14:00:27;20.92;;;10.88;;
65759;SDS011;52496;51.082;5.066;2024-03-07T14:06:02;24.25;;;11.18;;
65759;SDS011;52496;51.082;5.066;2024-03-07T14:33:31;17.77;;;9.32;;
65759;SDS011;52496;51.082;5.066;2024-03-07T14:36:13;28.63;;;10.32;;
65759;SDS011;52496;51.082;5.066;2024-03-07T14:38:52;22.83;;;9.95;;
65759;SDS011;52496;51.082;5.066;2024-03-07T14:44:46;19.40;;;10.63;;
65759;SDS011;52496;51.082;5.066;2024-03-07T14:47:26;20.60;;;9.15;;
65759;SDS011;52496;51.082;5.066;2024-03-07T14:49:58;19.08;;;9.23;;
65759;SDS011;52496;51.082;5.066;2024-03-07T14:52:39;21.40;;;11.45;;
65759;SDS011;52496;51.082;5.066;2024-03-07T14:57:44;20.95;;;9.52;;
65759;SDS011;52496;51.082;5.066;2024-03-07T15:00:25;18.02;;;10.10;;
65759;SDS011;52496;51.082;5.066;2024-03-07T15:02:57;18.35;;;9.63;;
65759;SDS011;52496;51.082;5.066;2024-03-07T15:05:41;19.05;;;9.07;;
65759;SDS011;52496;51.082;5.066;2024-03-07T15:08:21;18.77;;;10.18;;
65759;SDS011;52496;51.082;5.066;2024-03-07T15:11:16;18.25;;;9.75;;
65759;SDS011;52496;51.082;5.066;2024-03-07T15:14:13;22.35;;;9.82;;
65759;SDS011;52496;51.082;5.066;2024-03-07T15:16:43;19.52;;;9.70;;
65759;SDS011;52496;51.082;5.066;2024-03-07T15:19:14;18.80;;;9.50;;
65759;SDS011;52496;51.082;5.066;2024-03-07T15:21:45;15.45;;;9.35;;
65759;SDS011;52496;51.082;5.066;2024-03-07T15:24:18;19.17;;;10.48;;
65759;SDS011;52496;51.082;5.066;2024-03-07T15:26:51;20.40;;;10.57;;
65759;SDS011;52496;51.082;5.066;2024-03-07T15:29:22;18.20;;;9.68;;
65759;SDS011;52496;51.082;5.066;2024-03-07T15:31:52;18.17;;;9.63;;
65759;SDS011;52496;51.082;5.066;2024-03-07T15:34:23;21.05;;;10.90;;
65759;SDS011;52496;51.082;5.066;2024-03-07T15:37:03;18.95;;;11.10;;
65759;SDS011;52496;51.082;5.066;2024-03-07T15:39:34;19.10;;;9.32;;
65759;SDS011;52496;51.082;5.066;2024-03-07T15:42:08;20.17;;;9.13;;
65759;SDS011;52496;51.082;5.066;2024-03-07T15:44:38;17.73;;;9.52;;
65759;SDS011;52496;51.082;5.066;2024-03-07T15:47:09;24.33;;;11.35;;
65759;SDS011;52496;51.082;5.066;2024-03-07T15:49:40;20.08;;;9.90;;
65759;SDS011;52496;51.082;5.066;2024-03-07T15:52:11;22.05;;;11.68;;
65759;SDS011;52496;51.082;5.066;2024-03-07T15:54:42;20.20;;;9.57;;
65759;SDS011;52496;51.082;5.066;2024-03-07T15:57:12;16.05;;;8.85;;